Time;durP1;ratioP1;P1;durP2;ratioP2;P2;SDS_P1;SDS_P2;PMS_P1;PMS_P2;Temp;Humidity;BMP_temperature;BMP_pressure;BME280_temperature;BME280_humidity;BME280_pressure;Samples;Min_cycle;Max_cycle;Signal;HPM_P1;HPM_P2
2023/04/04 00:00:38;;;;;;;6.13;2.20;;;;;;;-0.30;72.26;102889.97;5065998;28;20041;-79
2023/04/04 00:03:06;;;;;;;6.43;2.58;;;;;;;-0.32;72.09;102892.50;5064542;28;20057;-79
2023/04/04 00:05:34;;;;;;;5.75;2.38;;;;;;;-0.28;72.19;102895.25;5068215;28;20048;-79
2023/04/04 00:08:03;;;;;;;6.03;2.55;;;;;;;-0.22;72.44;102892.94;5068383;28;20865;-79
2023/04/04 00:10:30;;;;;;;6.20;2.67;;;;;;;-0.16;72.22;102895.81;5069026;28;20056;-79
2023/04/04 00:12:57;;;;;;;4.05;1.80;;;;;;;-0.13;72.22;102903.72;5065678;28;20049;-79
2023/04/04 00:15:25;;;;;;;5.25;2.15;;;;;;;-0.12;72.12;102889.06;5065514;28;20497;-79
2023/04/04 00:17:52;;;;;;;4.82;2.65;;;;;;;-0.15;72.31;102884.59;5065958;28;20046;-79
2023/04/04 00:20:19;;;;;;;7.45;2.30;;;;;;;-0.15;72.18;102887.19;5064801;28;20037;-78
2023/04/04 00:22:46;;;;;;;5.63;2.50;;;;;;;-0.14;72.06;102888.97;5064454;28;20033;-78
2023/04/04 00:25:13;;;;;;;3.97;1.95;;;;;;;-0.13;72.21;102888.16;5055050;28;20077;-78
2023/04/04 00:27:40;;;;;;;6.00;2.50;;;;;;;-0.10;72.12;102887.44;5068197;28;20037;-78
2023/04/04 00:30:08;;;;;;;4.72;1.83;;;;;;;-0.09;72.01;102895.28;5068257;28;20488;-78
2023/04/04 00:32:35;;;;;;;5.72;2.22;;;;;;;-0.10;72.05;102893.50;5066122;28;20492;-78
2023/04/04 00:35:02;;;;;;;5.32;2.50;;;;;;;-0.10;71.92;102895.22;5056723;28;20053;-78
2023/04/04 00:37:29;;;;;;;3.42;2.03;;;;;;;-0.12;72.02;102889.06;5058891;28;20904;-79
2023/04/04 00:39:56;;;;;;;4.85;2.67;;;;;;;-0.13;71.82;102882.97;5066111;28;20047;-78
2023/04/04 00:42:24;;;;;;;5.72;2.45;;;;;;;-0.13;71.99;102882.97;5066199;28;20036;-77
2023/04/04 00:44:51;;;;;;;4.20;2.17;;;;;;;-0.17;72.03;102881.09;5067150;28;20999;-78
2023/04/04 00:47:23;;;;;;;6.03;2.28;;;;;;;-0.20;72.12;102883.53;5064695;28;20413;-77
2023/04/04 00:49:50;;;;;;;4.47;2.33;;;;;;;-0.24;72.32;102881.59;5066031;28;20851;-78
2023/04/04 00:52:17;;;;;;;5.47;1.92;;;;;;;-0.31;72.38;102877.84;5064671;28;20627;-79
2023/04/04 00:54:44;;;;;;;6.22;2.38;;;;;;;-0.36;72.23;102893.19;5065835;28;20129;-78
2023/04/04 00:57:12;;;;;;;6.10;2.50;;;;;;;-0.42;72.50;102889.41;5063901;28;20042;-77
2023/04/04 00:59:39;;;;;;;4.07;2.50;;;;;;;-0.48;72.64;102888.28;5065951;28;20060;-77
2023/04/04 01:02:07;;;;;;;5.57;2.47;;;;;;;-0.52;72.74;102883.78;5066171;28;20041;-77
2023/04/04 01:04:35;;;;;;;6.45;2.60;;;;;;;-0.55;72.98;102880.13;5063842;28;20037;-77
2023/04/04 01:07:03;;;;;;;2.75;1.50;;;;;;;-0.59;73.11;102875.63;5064404;28;20041;-77
2023/04/04 01:09:30;;;;;;;5.00;2.22;;;;;;;-0.64;73.35;102868.50;5065460;28;20039;-77
2023/04/04 01:11:58;;;;;;;4.05;2.38;;;;;;;-0.70;73.34;102870.81;5062027;28;20071;-77
2023/04/04 01:14:26;;;;;;;4.60;2.33;;;;;;;-0.74;73.69;102870.59;5081628;28;20037;-78
2023/04/04 01:16:54;;;;;;;4.97;2.28;;;;;;;-0.78;73.79;102869.56;5064472;28;20532;-78
2023/04/04 01:19:47;;;;;;;5.28;2.17;;;;;;;-0.86;74.10;102869.16;5061317;28;20053;-77
2023/04/04 01:22:20;;;;;;;5.00;2.60;;;;;;;-0.89;74.22;102870.72;5056638;28;20040;-77
2023/04/04 01:24:50;;;;;;;4.25;1.92;;;;;;;-0.94;73.76;102867.91;5064590;28;20045;-75
2023/04/04 01:27:17;;;;;;;4.90;2.00;;;;;;;-0.97;73.99;102862.56;5065038;28;20093;-76
2023/04/04 01:29:53;;;;;;;3.90;1.80;;;;;;;-0.98;74.39;102868.56;5060427;28;20052;-76
2023/04/04 01:32:42;;;;;;;6.18;2.65;;;;;;;-1.01;74.76;102863.22;5058730;28;20053;-76
2023/04/04 01:35:49;;;;;;;7.35;2.38;;;;;;;-1.01;74.90;102864.13;5061375;28;20048;-76
2023/04/04 01:38:49;;;;;;;6.55;2.67;;;;;;;-1.04;75.08;102871.72;5064420;28;20048;-78
2023/04/04 01:41:19;;;;;;;5.38;2.30;;;;;;;-1.10;74.61;102874.88;5056833;28;20172;-78
2023/04/04 01:43:52;;;;;;;3.45;2.00;;;;;;;-1.13;74.68;102872.16;5076218;28;20057;-78
2023/04/04 01:46:22;;;;;;;6.65;1.98;;;;;;;-1.17;74.80;102861.56;5066350;28;20205;-77
2023/04/04 01:48:50;;;;;;;6.32;2.53;;;;;;;-1.16;75.13;102868.50;5063132;28;20045;-78
2023/04/04 01:51:22;;;;;;;5.57;2.50;;;;;;;-1.11;75.62;102870.50;5060918;28;20044;-77
2023/04/04 01:53:50;;;;;;;5.68;1.98;;;;;;;-1.07;75.32;102866.41;5057126;28;20049;-77
2023/04/04 01:56:18;;;;;;;4.68;2.58;;;;;;;-1.10;75.45;102859.34;5076908;28;20570;-77
2023/04/04 01:58:45;;;;;;;3.83;2.13;;;;;;;-1.09;75.37;102857.66;5066721;28;20045;-77
2023/04/04 02:01:13;;;;;;;3.60;2.22;;;;;;;-1.12;75.22;102860.09;5063449;28;20058;-77
2023/04/04 02:03:40;;;;;;;5.32;2.70;;;;;;;-1.14;75.54;102854.84;5058176;28;20045;-77
2023/04/04 02:06:07;;;;;;;6.60;2.25;;;;;;;-1.15;75.46;102860.84;5060190;28;20052;-76
2023/04/04 02:08:35;;;;;;;5.53;3.10;;;;;;;-1.16;75.50;102859.06;5063778;28;20053;-75
2023/04/04 02:11:03;;;;;;;5.93;2.63;;;;;;;-1.13;75.74;102860.91;5074765;28;20061;-78
2023/04/04 02:13:30;;;;;;;3.55;2.05;;;;;;;-1.11;75.63;102860.16;5057587;28;20048;-78
2023/04/04 02:15:59;;;;;;;5.90;2.15;;;;;;;-1.13;75.57;102864.41;5062896;28;20053;-77
2023/04/04 02:18:27;;;;;;;5.25;2.75;;;;;;;-1.13;75.79;102860.91;5062197;28;20055;-78
2023/04/04 02:20:56;;;;;;;5.78;1.95;;;;;;;-1.15;75.72;102863.44;5064740;28;20056;-80
2023/04/04 02:23:24;;;;;;;5.07;2.40;;;;;;;-1.16;75.89;102866.81;5063189;28;20041;-80
2023/04/04 02:25:51;;;;;;;5.15;2.20;;;;;;;-1.17;75.64;102861.56;5065465;28;20041;-79
2023/04/04 02:28:19;;;;;;;8.07;2.58;;;;;;;-1.21;75.30;102867.41;5066781;28;20053;-79
2023/04/04 02:30:47;;;;;;;4.15;2.22;;;;;;;-1.24;75.72;102868.13;5067839;28;20056;-76
2023/04/04 02:33:14;;;;;;;6.55;2.00;;;;;;;-1.18;76.06;102876.22;5064806;28;20044;-76
2023/04/04 02:35:41;;;;;;;6.00;3.03;;;;;;;-1.15;75.99;102866.00;5068857;28;20048;-76
2023/04/04 02:38:08;;;;;;;5.18;2.13;;;;;;;-1.11;76.26;102870.50;5067367;28;20087;-77
2023/04/04 02:40:45;;;;;;;4.90;1.95;;;;;;;-1.09;76.13;102868.03;5066020;28;20051;-76
2023/04/04 02:43:12;;;;;;;6.82;3.13;;;;;;;-1.10;76.03;102868.84;5084217;28;20049;-76
2023/04/04 02:45:40;;;;;;;6.13;2.60;;;;;;;-1.13;75.95;102866.09;5066124;28;20052;-76
2023/04/04 02:48:18;;;;;;;5.57;3.00;;;;;;;-1.20;76.35;102866.59;5066523;28;20146;-76
2023/04/04 02:50:48;;;;;;;5.85;2.67;;;;;;;-1.23;76.39;102864.75;5065973;28;20052;-75
2023/04/04 02:53:16;;;;;;;5.88;2.33;;;;;;;-1.26;76.56;102862.88;5082930;28;20115;-75
2023/04/04 02:55:45;;;;;;;4.15;2.30;;;;;;;-1.28;76.60;102859.34;5067020;28;20077;-76
2023/04/04 02:58:12;;;;;;;5.60;2.33;;;;;;;-1.28;76.74;102861.00;5063714;28;20033;-77
2023/04/04 03:00:39;;;;;;;6.28;2.40;;;;;;;-1.29;76.61;102857.56;5066325;28;20048;-76
2023/04/04 03:03:06;;;;;;;4.30;2.47;;;;;;;-1.34;76.73;102853.81;5065804;28;20056;-76
2023/04/04 03:05:40;;;;;;;6.70;2.42;;;;;;;-1.31;76.77;102855.66;5066952;28;20045;-75
2023/04/04 03:08:07;;;;;;;8.80;3.00;;;;;;;-1.33;76.96;102854.72;5057981;28;20041;-76
2023/04/04 03:10:34;;;;;;;4.63;2.92;;;;;;;-1.34;76.96;102852.94;5065048;28;20114;-74
2023/04/04 03:13:02;;;;;;;5.15;3.22;;;;;;;-1.39;76.91;102846.63;5063005;28;20073;-74
2023/04/04 03:15:33;;;;;;;4.28;2.35;;;;;;;-1.45;76.74;102842.03;5066332;28;20044;-76
2023/04/04 03:18:02;;;;;;;7.75;2.60;;;;;;;-1.48;76.79;102852.25;5067716;28;20055;-75
2023/04/04 03:20:31;;;;;;;4.00;2.55;;;;;;;-1.50;77.15;102844.38;5063914;28;20099;-78
2023/04/04 03:22:58;;;;;;;2.70;1.92;;;;;;;-1.50;77.42;102846.09;5064865;28;20040;-78
2023/04/04 03:25:25;;;;;;;4.18;2.22;;;;;;;-1.46;77.47;102838.56;5066764;28;20077;-78
2023/04/04 03:27:54;;;;;;;7.30;2.80;;;;;;;-1.46;77.50;102832.50;5065381;28;21408;-76
2023/04/04 03:30:25;;;;;;;7.68;2.67;;;;;;;-1.49;77.45;102838.41;5067117;28;20143;-76
2023/04/04 03:32:54;;;;;;;5.22;2.92;;;;;;;-1.53;77.51;102840.75;5066616;28;20045;-76
2023/04/04 03:35:21;;;;;;;7.60;3.20;;;;;;;-1.53;77.60;102838.16;5068362;28;20049;-76
2023/04/04 03:37:48;;;;;;;7.68;3.20;;;;;;;-1.54;77.68;102836.38;5066653;28;20548;-76
2023/04/04 03:40:15;;;;;;;6.43;2.50;;;;;;;-1.59;77.64;102829.28;5065113;28;20048;-74
2023/04/04 03:42:42;;;;;;;6.47;2.85;;;;;;;-1.62;77.71;102833.41;5067085;28;20052;-73
2023/04/04 03:45:12;;;;;;;4.78;2.65;;;;;;;-1.65;77.74;102828.97;5067054;28;20049;-74
2023/04/04 03:47:41;;;;;;;5.00;2.83;;;;;;;-1.66;77.76;102836.66;5067227;28;20076;-74
2023/04/04 03:50:09;;;;;;;6.00;3.58;;;;;;;-1.67;78.12;102840.91;5066284;28;20041;-74
2023/04/04 03:52:40;;;;;;;5.65;3.05;;;;;;;-1.63;78.16;102834.22;5080595;28;20528;-74
2023/04/04 03:55:07;;;;;;;5.68;2.55;;;;;;;-1.63;77.99;102836.81;5067306;28;20049;-74
2023/04/04 03:57:35;;;;;;;5.25;2.60;;;;;;;-1.63;78.04;102844.56;5065162;28;20385;-74
2023/04/04 04:00:07;;;;;;;6.35;2.67;;;;;;;-1.68;78.15;102836.59;5088157;28;20056;-74
2023/04/04 04:02:40;;;;;;;4.00;2.38;;;;;;;-1.72;78.21;102830.34;5066912;28;20052;-79
2023/04/04 04:05:09;;;;;;;5.60;2.67;;;;;;;-1.77;78.05;102825.72;5065318;28;20048;-79
2023/04/04 04:07:36;;;;;;;5.32;2.92;;;;;;;-1.81;78.11;102827.25;5066614;28;20045;-78
2023/04/04 04:10:04;;;;;;;6.75;2.75;;;;;;;-1.83;78.29;102828.88;5067336;28;20071;-79
2023/04/04 04:12:32;;;;;;;4.88;2.83;;;;;;;-1.85;78.51;102814.09;5063478;28;20045;-76
2023/04/04 04:14:59;;;;;;;7.35;2.92;;;;;;;-1.85;78.40;102816.69;5068813;28;20076;-80
2023/04/04 04:17:28;;;;;;;5.30;2.90;;;;;;;-1.90;78.53;102819.03;5057488;28;20764;-72
2023/04/04 04:19:55;;;;;;;8.50;2.70;;;;;;;-1.92;78.49;102820.63;5066468;28;20127;-78
2023/04/04 04:22:23;;;;;;;6.22;2.78;;;;;;;-1.92;78.85;102824.13;5065460;28;20092;-78
2023/04/04 04:24:50;;;;;;;6.88;2.67;;;;;;;-1.90;79.16;102821.63;5064471;28;20037;-78
2023/04/04 04:27:18;;;;;;;5.50;2.95;;;;;;;-1.90;79.31;102831.94;5065147;28;20072;-79
2023/04/04 04:29:45;;;;;;;5.50;2.50;;;;;;;-1.94;79.17;102820.56;5048524;28;20118;-77
2023/04/04 04:32:16;;;;;;;6.13;3.17;;;;;;;-1.97;79.21;102820.41;5065571;28;20037;-75
2023/04/04 04:34:47;;;;;;;9.80;2.78;;;;;;;-1.96;79.56;102823.88;5054067;28;20128;-77
2023/04/04 04:37:16;;;;;;;6.90;3.13;;;;;;;-1.97;79.57;102820.41;5062893;28;20049;-76
2023/04/04 04:39:51;;;;;;;5.85;2.85;;;;;;;-1.99;79.67;102826.28;5059306;28;20069;-76
2023/04/04 04:42:30;;;;;;;8.10;3.22;;;;;;;-2.04;79.62;102826.06;5057225;28;20064;-76
2023/04/04 04:44:59;;;;;;;5.28;2.92;;;;;;;-2.04;79.71;102826.97;5063682;28;20567;-77
2023/04/04 04:47:30;;;;;;;6.57;3.33;;;;;;;-2.03;79.88;102826.13;5064615;28;20933;-77
2023/04/04 04:50:00;;;;;;;6.43;3.25;;;;;;;-2.03;80.11;102833.00;5054658;28;20089;-77
2023/04/04 04:52:37;;;;;;;5.78;3.15;;;;;;;-1.72;83.63;102832.03;5060628;28;20113;-75
2023/04/04 04:55:05;;;;;;;8.05;3.22;;;;;;;-1.48;84.23;102839.31;5061612;28;20045;-76
2023/04/04 04:57:35;;;;;;;6.30;3.17;;;;;;;-1.17;84.86;102839.16;5061830;28;20143;-77
2023/04/04 05:00:09;;;;;;;10.93;3.60;;;;;;;-0.90;85.41;102837.88;5065343;28;20119;-76
2023/04/04 05:02:37;;;;;;;5.45;3.08;;;;;;;-0.63;85.06;102838.31;5055278;28;20045;-76
2023/04/04 05:05:05;;;;;;;5.20;3.25;;;;;;;-0.45;84.91;102833.09;5056048;28;20492;-76
2023/04/04 05:07:33;;;;;;;7.95;3.83;;;;;;;-0.20;84.38;102835.13;5057566;28;20037;-76
2023/04/04 05:10:01;;;;;;;7.45;3.85;;;;;;;-0.05;82.99;102834.94;5058681;28;20779;-76
2023/04/04 05:12:28;;;;;;;8.07;3.53;;;;;;;0.03;81.58;102826.66;5040479;28;20107;-75
2023/04/04 05:14:55;;;;;;;6.00;3.38;;;;;;;0.13;80.62;102828.84;5071967;28;20037;-76
2023/04/04 05:17:23;;;;;;;6.15;3.53;;;;;;;0.08;78.61;102825.13;5060449;28;20521;-77
2023/04/04 05:19:54;;;;;;;6.32;3.35;;;;;;;0.07;78.41;102828.53;5045516;28;20101;-75
2023/04/04 05:22:22;;;;;;;8.20;3.85;;;;;;;0.12;78.13;102834.84;5052429;28;20084;-75
2023/04/04 05:24:51;;;;;;;6.10;3.78;;;;;;;0.17;77.45;102830.72;5052553;28;20037;-78
2023/04/04 05:27:22;;;;;;;8.15;3.70;;;;;;;-0.08;75.90;102833.94;5043091;28;20060;-77
2023/04/04 05:29:56;;;;;;;8.68;4.40;;;;;;;-0.41;75.68;102836.75;5047871;28;20056;-77
2023/04/04 05:32:25;;;;;;;6.55;3.45;;;;;;;-0.65;76.09;102848.59;5052071;28;20051;-77
2023/04/04 05:35:02;;;;;;;5.05;3.25;;;;;;;-0.84;76.75;102848.50;5044075;28;20091;-77
2023/04/04 05:37:38;;;;;;;7.80;4.30;;;;;;;-0.97;76.98;102853.06;5046813;28;20045;-77
2023/04/04 05:40:09;;;;;;;9.05;3.60;;;;;;;-1.05;77.25;102848.34;5055298;28;20076;-77
2023/04/04 05:42:37;;;;;;;6.35;3.67;;;;;;;-1.09;77.39;102857.66;5049923;28;20171;-77
2023/04/04 05:45:05;;;;;;;5.45;3.17;;;;;;;-1.08;77.70;102858.53;5043517;28;20050;-76
2023/04/04 05:47:32;;;;;;;9.07;4.10;;;;;;;-1.02;77.73;102858.88;5054884;28;20052;-78
2023/04/04 05:50:00;;;;;;;7.15;4.22;;;;;;;-0.98;77.57;102868.56;5048879;28;20523;-78
2023/04/04 05:52:30;;;;;;;6.50;3.80;;;;;;;-0.90;77.48;102871.53;5064031;28;20123;-78
2023/04/04 05:54:57;;;;;;;8.43;4.25;;;;;;;-0.88;77.45;102864.72;5059471;28;20041;-78
2023/04/04 05:57:28;;;;;;;7.35;4.18;;;;;;;-0.87;77.53;102871.69;5048526;28;20052;-78
2023/04/04 05:59:57;;;;;;;8.55;4.00;;;;;;;-0.85;77.50;102870.94;5050134;28;20049;-78
2023/04/04 06:02:25;;;;;;;10.05;4.40;;;;;;;-0.85;77.60;102867.44;5058814;28;20061;-78
2023/04/04 06:04:56;;;;;;;8.68;4.20;;;;;;;-0.80;77.65;102866.00;5056384;28;20049;-77
2023/04/04 06:07:35;;;;;;;7.65;3.88;;;;;;;-0.76;77.66;102870.50;5067719;28;20056;-78
2023/04/04 06:10:04;;;;;;;6.95;3.58;;;;;;;-0.69;77.45;102867.41;5069872;28;20045;-77
2023/04/04 06:12:34;;;;;;;6.63;3.50;;;;;;;-0.62;77.22;102876.38;5069559;28;20140;-78
2023/04/04 06:15:06;;;;;;;6.43;4.20;;;;;;;-0.54;77.19;102877.63;5067170;28;20485;-78
2023/04/04 06:17:33;;;;;;;7.38;4.22;;;;;;;-0.44;77.05;102871.16;5068066;28;20119;-77
2023/04/04 06:20:00;;;;;;;6.38;3.80;;;;;;;-0.36;76.92;102880.22;5070688;28;20817;-77
2023/04/04 06:22:27;;;;;;;10.25;3.58;;;;;;;-0.29;76.54;102875.31;5071721;28;20041;-77
2023/04/04 06:24:55;;;;;;;8.82;4.05;;;;;;;-0.22;76.28;102883.47;5053754;28;20076;-77
2023/04/04 06:27:24;;;;;;;7.38;3.78;;;;;;;-0.13;75.99;102880.38;5056156;28;20081;-78
2023/04/04 06:29:51;;;;;;;6.40;3.90;;;;;;;-0.09;76.14;102878.81;5068914;28;20151;-78
2023/04/04 06:32:21;;;;;;;7.72;4.32;;;;;;;0.02;75.86;102879.34;5068548;28;20099;-78
2023/04/04 06:34:48;;;;;;;5.63;3.95;;;;;;;0.12;75.67;102884.13;5070446;28;20041;-78
2023/04/04 06:37:19;;;;;;;9.35;3.95;;;;;;;0.23;74.90;102885.50;5067667;28;20044;-77
2023/04/04 06:39:53;;;;;;;7.18;3.30;;;;;;;0.34;74.62;102893.75;5083614;28;20068;-77
2023/04/04 06:42:25;;;;;;;7.47;3.92;;;;;;;0.49;73.98;102890.97;5053899;28;20063;-77
2023/04/04 06:44:53;;;;;;;7.53;3.83;;;;;;;0.61;73.33;102890.63;5068132;28;20131;-77
2023/04/04 06:47:21;;;;;;;9.38;3.70;;;;;;;0.73;73.38;102885.09;5069279;28;20044;-78
2023/04/04 06:49:48;;;;;;;7.70;3.50;;;;;;;0.86;73.17;102886.50;5060758;28;20127;-78
2023/04/04 06:52:16;;;;;;;7.63;3.70;;;;;;;1.00;73.01;102889.66;5062934;28;20073;-78
2023/04/04 06:54:43;;;;;;;7.05;3.50;;;;;;;1.14;72.94;102880.75;5067082;28;20052;-77
2023/04/04 06:57:10;;;;;;;5.43;3.58;;;;;;;1.31;72.32;102880.53;5066839;28;20045;-78
2023/04/04 06:59:37;;;;;;;7.68;3.33;;;;;;;1.46;71.79;102875.97;5067891;28;20041;-78
2023/04/04 07:02:04;;;;;;;9.18;3.70;;;;;;;1.63;71.30;102886.16;5068450;28;20091;-78
2023/04/04 07:04:33;;;;;;;7.53;3.70;;;;;;;1.79;70.76;102885.03;5064580;28;20033;-78
2023/04/04 07:07:01;;;;;;;5.07;3.13;;;;;;;1.93;70.42;102883.88;5068703;28;20049;-78
2023/04/04 07:09:28;;;;;;;4.97;3.03;;;;;;;2.06;69.89;102880.03;5067913;28;20045;-78
2023/04/04 07:11:55;;;;;;;6.20;3.30;;;;;;;2.16;69.81;102881.22;5057655;28;20487;-78
2023/04/04 07:14:24;;;;;;;5.13;3.25;;;;;;;2.31;68.37;102883.50;5069234;28;20045;-78
2023/04/04 07:16:52;;;;;;;4.38;3.20;;;;;;;2.40;67.73;102885.59;5068863;28;20131;-78
2023/04/04 07:19:22;;;;;;;6.60;3.22;;;;;;;2.54;67.37;102886.97;5069073;28;20045;-78
2023/04/04 07:21:49;;;;;;;4.57;2.92;;;;;;;2.69;67.17;102878.81;5066940;28;20073;-78
2023/04/04 07:24:17;;;;;;;6.07;2.90;;;;;;;2.83;66.78;102879.28;5068008;28;20041;-78
2023/04/04 07:26:44;;;;;;;6.10;3.35;;;;;;;2.97;66.01;102871.94;5066949;28;20119;-79
2023/04/04 07:29:11;;;;;;;6.40;3.00;;;;;;;3.10;65.18;102871.50;5068971;28;20132;-78
2023/04/04 07:31:38;;;;;;;5.43;3.00;;;;;;;3.20;65.44;102872.72;5069131;28;20036;-78
2023/04/04 07:34:06;;;;;;;5.68;3.08;;;;;;;3.31;65.35;102872.19;5073587;28;20044;-78
2023/04/04 07:36:33;;;;;;;6.30;3.25;;;;;;;3.43;64.36;102877.78;5069410;28;20045;-78
2023/04/04 07:39:00;;;;;;;6.22;3.20;;;;;;;3.55;63.90;102880.78;5061617;28;20038;-78
2023/04/04 07:41:27;;;;;;;5.68;2.90;;;;;;;3.67;64.28;102880.28;5068150;28;20757;-78
2023/04/04 07:43:54;;;;;;;5.35;3.00;;;;;;;3.79;63.82;102878.91;5068345;28;20057;-78
2023/04/04 07:46:21;;;;;;;5.63;2.85;;;;;;;3.87;62.48;102875.66;5068293;28;20542;-78
2023/04/04 07:48:49;;;;;;;3.97;2.75;;;;;;;3.93;62.86;102879.31;5068752;28;20065;-78
2023/04/04 07:51:16;;;;;;;5.15;2.50;;;;;;;4.03;61.21;102883.97;5066929;28;20123;-78
2023/04/04 07:53:43;;;;;;;7.05;3.20;;;;;;;4.12;61.18;102878.13;5062688;28;20100;-78
2023/04/04 07:56:10;;;;;;;6.40;2.78;;;;;;;4.23;60.83;102875.81;5061703;28;20607;-78
2023/04/04 07:58:37;;;;;;;4.47;2.47;;;;;;;4.33;61.13;102872.63;5068929;28;20041;-78
2023/04/04 08:01:04;;;;;;;4.45;2.53;;;;;;;4.46;59.72;102876.47;5068976;28;20524;-78
2023/04/04 08:03:31;;;;;;;6.20;2.65;;;;;;;4.53;59.74;102872.31;5069375;28;20052;-78
2023/04/04 08:05:58;;;;;;;6.57;2.53;;;;;;;4.59;59.52;102877.69;5069107;28;20512;-78
2023/04/04 08:08:26;;;;;;;4.10;2.15;;;;;;;4.65;58.83;102873.50;5069001;28;20072;-80
2023/04/04 08:10:53;;;;;;;4.00;2.40;;;;;;;4.69;57.15;102871.00;5067995;28;20037;-77
2023/04/04 08:13:20;;;;;;;4.82;2.20;;;;;;;4.74;58.08;102870.28;5068517;28;20794;-78
2023/04/04 08:15:47;;;;;;;4.47;2.17;;;;;;;4.84;57.60;102876.59;5067299;28;20052;-78
2023/04/04 08:18:15;;;;;;;5.15;2.38;;;;;;;4.92;57.76;102876.81;5065326;28;20041;-77
2023/04/04 08:20:42;;;;;;;5.25;2.42;;;;;;;5.01;57.90;102863.97;5071261;28;20052;-78
2023/04/04 08:23:09;;;;;;;4.35;2.50;;;;;;;5.15;56.83;102872.16;5067770;28;20159;-78
2023/04/04 08:25:36;;;;;;;7.85;3.10;;;;;;;5.21;57.54;102861.88;5064336;28;20045;-78
2023/04/04 08:28:04;;;;;;;4.68;2.08;;;;;;;5.31;56.78;102875.16;5067820;28;20047;-80
2023/04/04 08:30:31;;;;;;;3.88;1.90;;;;;;;5.40;55.37;102867.53;5060439;28;20041;-78
2023/04/04 08:32:58;;;;;;;5.93;2.20;;;;;;;5.50;53.41;102856.44;5068228;28;20126;-79
2023/04/04 08:35:25;;;;;;;4.65;2.03;;;;;;;5.51;55.50;102852.09;5069110;28;20132;-78
2023/04/04 08:37:52;;;;;;;4.93;2.15;;;;;;;5.60;54.71;102853.19;5067988;28;20521;-79
2023/04/04 08:40:20;;;;;;;5.35;2.30;;;;;;;5.69;54.30;102860.38;5067699;28;20033;-78
2023/04/04 08:42:50;;;;;;;4.40;1.80;;;;;;;5.83;53.42;102859.78;5062332;28;20053;-79
2023/04/04 08:45:18;;;;;;;3.83;1.80;;;;;;;5.96;51.13;102848.72;5059556;28;20796;-78
2023/04/04 08:47:49;;;;;;;6.57;1.58;;;;;;;6.00;49.41;102857.56;5067321;28;20057;-79
2023/04/04 08:50:18;;;;;;;3.33;1.65;;;;;;;6.01;51.17;102851.47;5067172;28;20099;-77
2023/04/04 08:52:45;;;;;;;4.30;1.70;;;;;;;6.12;51.35;102852.59;5056327;28;20037;-78
2023/04/04 08:55:14;;;;;;;3.80;1.75;;;;;;;6.26;51.62;102859.84;5067119;28;20041;-79
2023/04/04 08:57:42;;;;;;;3.20;1.63;;;;;;;6.39;48.81;102853.09;5068071;28;20063;-78
2023/04/04 09:00:10;;;;;;;5.35;1.70;;;;;;;6.44;48.34;102852.34;5067687;28;20048;-79
2023/04/04 09:03:14;;;;;;;8.57;1.88;;;;;;;6.50;48.87;102854.19;5067694;28;20045;-77
2023/04/04 09:05:43;;;;;;;5.93;1.80;;;;;;;6.60;50.10;102855.22;5067265;28;20100;-77
2023/04/04 09:08:12;;;;;;;5.15;1.90;;;;;;;6.70;48.87;102854.53;5067594;28;20051;-79
2023/04/04 09:10:42;;;;;;;3.97;1.25;;;;;;;6.76;47.36;102849.44;5067959;28;20722;-77
2023/04/04 09:13:10;;;;;;;4.93;1.40;;;;;;;6.77;46.48;102851.16;5065291;28;20761;-78
2023/04/04 09:15:47;;;;;;;5.95;1.55;;;;;;;6.80;46.30;102848.63;5073029;28;20566;-76
2023/04/04 09:18:16;;;;;;;5.13;1.60;;;;;;;6.88;46.79;102845.22;5067266;28;20065;-78
2023/04/04 09:20:46;;;;;;;3.75;1.35;;;;;;;6.98;45.15;102853.31;5066603;28;20045;-78
2023/04/04 09:23:22;;;;;;;2.35;1.27;;;;;;;6.96;44.66;102852.38;5067026;28;20041;-77
2023/04/04 09:25:53;;;;;;;4.45;1.45;;;;;;;6.94;45.48;102843.59;5066922;28;20534;-81
2023/04/04 09:28:23;;;;;;;4.20;1.50;;;;;;;7.03;45.79;102847.22;5065825;28;20045;-78
2023/04/04 09:30:51;;;;;;;5.28;1.60;;;;;;;7.11;46.57;102845.66;5067739;28;20045;-78
2023/04/04 09:33:23;;;;;;;5.63;1.98;;;;;;;7.17;45.17;102850.97;5066922;28;20045;-78
2023/04/04 09:35:57;;;;;;;3.45;1.60;;;;;;;7.20;44.26;102848.41;5046458;28;20046;-78
2023/04/04 09:38:28;;;;;;;3.53;1.50;;;;;;;7.25;44.01;102851.09;5061723;28;20049;-78
2023/04/04 09:40:56;;;;;;;4.22;1.80;;;;;;;7.19;42.98;102854.50;5067234;28;20551;-77
2023/04/04 09:43:25;;;;;;;2.83;1.42;;;;;;;7.14;43.03;102840.41;5063949;28;20115;-77
2023/04/04 09:45:53;;;;;;;4.32;1.80;;;;;;;7.11;44.04;102838.63;5067482;28;20049;-78
2023/04/04 09:48:33;;;;;;;7.13;1.65;;;;;;;7.14;44.40;102835.19;5066865;28;20051;-79
2023/04/04 09:51:05;;;;;;;3.28;1.52;;;;;;;7.25;45.02;102830.97;5067737;28;20041;-77
2023/04/04 09:53:38;;;;;;;3.65;1.60;;;;;;;7.43;43.36;102837.34;5065098;28;20040;-78
2023/04/04 09:56:06;;;;;;;6.72;1.70;;;;;;;7.43;43.34;102821.63;5068243;28;20051;-78
2023/04/04 09:58:37;;;;;;;4.45;1.50;;;;;;;7.48;43.40;102827.81;5063251;28;20084;-79
2023/04/04 10:01:12;;;;;;;9.10;1.60;;;;;;;7.45;45.03;102820.81;5047757;28;20516;-79
2023/04/04 10:03:39;;;;;;;5.50;1.70;;;;;;;7.51;43.91;102825.25;5047316;28;20052;-80
2023/04/04 10:06:11;;;;;;;4.72;1.70;;;;;;;7.59;43.59;102822.72;5049666;28;20050;-80
2023/04/04 10:08:40;;;;;;;5.45;1.90;;;;;;;7.71;43.58;102824.66;5067111;28;20041;-78
2023/04/04 10:11:08;;;;;;;5.50;1.60;;;;;;;7.84;42.75;102828.31;5066385;28;20052;-78
2023/04/04 10:13:40;;;;;;;5.88;1.80;;;;;;;7.89;42.31;102831.84;5065395;28;20037;-78
2023/04/04 10:16:09;;;;;;;3.47;1.40;;;;;;;7.87;42.49;102823.97;5066456;28;20044;-78
2023/04/04 10:18:37;;;;;;;4.53;1.50;;;;;;;7.87;41.52;102821.34;5066834;28;20512;-79
2023/04/04 10:21:07;;;;;;;5.78;2.00;;;;;;;7.83;42.04;102826.53;5065023;28;20056;-77
2023/04/04 10:23:40;;;;;;;4.53;1.80;;;;;;;7.81;42.80;102804.63;5065230;28;20103;-79
2023/04/04 10:26:08;;;;;;;6.47;2.03;;;;;;;7.92;43.29;102813.53;5066613;28;20813;-78
2023/04/04 10:28:35;;;;;;;5.72;1.80;;;;;;;8.03;41.84;102809.28;5065581;28;20068;-79
2023/04/04 10:31:15;;;;;;;9.25;1.80;;;;;;;8.09;43.82;102811.09;5067140;28;20052;-78
2023/04/04 10:34:04;;;;;;;3.10;1.52;;;;;;;8.20;42.86;102808.59;5066513;28;20061;-78
2023/04/04 10:36:49;;;;;;;4.28;1.90;;;;;;;8.37;40.74;102814.03;5064773;28;20148;-78
2023/04/04 10:39:31;;;;;;;4.90;1.50;;;;;;;8.36;40.45;102814.88;5065385;28;20120;-78
2023/04/04 10:42:00;;;;;;;3.65;1.63;;;;;;;8.37;41.38;102812.31;5064776;28;20052;-77
2023/04/04 10:44:40;;;;;;;5.90;1.70;;;;;;;8.40;41.30;102809.69;5064396;28;20053;-79
2023/04/04 10:47:20;;;;;;;3.80;1.63;;;;;;;8.39;41.28;102797.41;5060156;28;20096;-80
2023/04/04 10:49:50;;;;;;;4.82;1.88;;;;;;;8.49;41.15;102803.69;5069831;28;20103;-78
2023/04/04 10:52:21;;;;;;;3.95;1.90;;;;;;;8.52;40.17;102802.81;5068323;28;20850;-77
2023/04/04 10:54:53;;;;;;;5.63;1.90;;;;;;;8.44;41.31;102807.09;5068624;28;20045;-77
2023/04/04 10:57:22;;;;;;;3.00;1.40;;;;;;;8.40;40.46;102795.66;5068072;28;20068;-77
2023/04/04 11:00:10;;;;;;;3.80;1.63;;;;;;;8.42;41.81;102790.41;5069058;28;20048;-77
2023/04/04 11:03:01;;;;;;;2.88;1.70;;;;;;;8.61;41.81;102788.88;5068656;28;20041;-77
2023/04/04 11:05:39;;;;;;;3.17;1.75;;;;;;;8.75;41.80;102786.38;5070622;28;20071;-76
2023/04/04 11:08:12;;;;;;;4.38;1.80;;;;;;;8.83;40.00;102788.22;5067506;28;20118;-77
2023/04/04 11:10:49;;;;;;;4.95;1.95;;;;;;;8.82;40.29;102790.81;5068877;28;20573;-78
2023/04/04 11:13:20;;;;;;;4.07;1.88;;;;;;;8.72;42.08;102774.09;5068710;28;20041;-79
2023/04/04 11:15:59;;;;;;;4.65;2.10;;;;;;;8.81;41.50;102771.53;5069419;28;20751;-78
2023/04/04 11:18:42;;;;;;;4.22;2.00;;;;;;;8.94;40.60;102771.63;5069170;28;20044;-77
2023/04/04 11:21:18;;;;;;;4.00;1.88;;;;;;;8.91;40.32;102764.59;5069361;28;20041;-78
2023/04/04 11:23:48;;;;;;;3.95;1.58;;;;;;;8.89;39.98;102763.72;5067608;28;20532;-78
2023/04/04 11:26:38;;;;;;;9.35;2.78;;;;;;;8.87;41.04;102768.06;5067703;28;20072;-76
2023/04/04 11:29:07;;;;;;;5.47;1.52;;;;;;;8.94;40.37;102750.59;5061647;28;20191;-77
2023/04/04 11:31:44;;;;;;;4.70;2.05;;;;;;;8.98;40.83;102739.19;5068117;28;21131;-77
2023/04/04 11:34:14;;;;;;;5.07;1.77;;;;;;;9.12;39.95;102745.44;5068385;28;20041;-77
2023/04/04 11:36:43;;;;;;;4.88;1.92;;;;;;;9.06;40.50;102739.25;5069341;28;20670;-79
2023/04/04 11:39:21;;;;;;;10.10;2.25;;;;;;;9.13;41.40;102743.69;5078267;28;20112;-78
2023/04/04 11:42:20;;;;;;;4.55;1.83;;;;;;;9.28;41.53;102745.53;5069004;28;20260;-79